Bird City, KS

12:59 PM CDT on September 03, 2015 (GMT -0500)
APRSWXNET | | Change Station
CLOSE
Current Station
Personal Weather Station
Location: Bird City, KS
Elevation: 3512 ft
Nearby Weather Stations

Elev 3512 ft 39.76 °N, 101.59 °W | Updated 27 minutes ago

Clear
Clear
91 °F
Feels Like 89 °F
N
2
Wind Variable Wind from ENE
Gusts 5.0 mph

Today
High -- | Low -- °F
--% Chance of Precip.
Yesterday
High -- | Low -- °F
Precip. -- in
7:15 AM 8:14 PM
Waning Gibbous, 68% visible
Pressure 29.86 in
Visibility 5.0 miles
Clouds Clear
Heat Index 89 °F
Dew Point 54 °F
Humidity 29%
Rainfall in
Snow Depth Not available.
UV 9 out of 12
Pollen 10.80 out of 12
Air Quality Not available.
Flu Activity Not available.
METAR KSYF 031755Z AUTO 15005KT 5SM HZ CLR 34/03 A2986 RMK AO2 T03400025 10342 20131
Pressure 29.86 in
Visibility 5.0 miles
Clouds Clear
Heat Index 89 °F
Dew Point 54 °F
Humidity 29%
Rainfall in
Snow Depth Not available.
UV 9 out of 12
Pollen 10.80 out of 12
Air Quality Not available.
Flu Activity Not available.
METAR KSYF 031755Z AUTO 15005KT 5SM HZ CLR 34/03 A2986 RMK AO2 T03400025 10342 20131

10-Day Weather Forecast

×

Almanac

Astronomy

Sep. 03, 2015 Rise Set
Actual Time
Civil Twilight
Nautical Twilight
Astronomical Twilight
Moon
Length of Visible Light
Length of Day
Tomorrow will be .
, % of the Moon is Illuminated

Today's Extremes

State Highs State Lows

Community

WunderPhotos

Upload Photos

1,851,993 photos uploaded!

WunderBlogs® & News

Nearby

Air Quality

  Air Quality AQ Index Pollutant
Not available.

Snow Depth

Station Depth Elevation

Earthquake Activity

City Distance Mag. Time & Date
Minimum magnitude displayed is 2.5.

Coastal Water Temperatures

Place Temperature

Stations

Nearby Weather Stations

Station Location Temp. Windchill Dew Point Humidity Wind Precip. Elev Updated Type